Star Siranger — 9VAH — position and weather

sailwx.info

Track history (hours):
 
Tides and Currents Weather Stations Pressure Air Temp Water Temp Dewpoint Dewpoint Depression Visibility Wind Speed Wind Dir Waves Ship Positions

Star Siranger

Last reported at 2013-Sep-25 11:19 UTC. Time now 2014-Nov-26 10:07 UTC.
Position N 40°50' E 029°17'.
Warning: this ship's position is years out of date!

Length 149 m; draft 6 m.

Type: Cargo ship. MMSI: 563995000.

Date/timePositionNaut miles runAvg speedWind from/ knotsBaromVisibWave heightAir tempDewpointWater temp
2013-Sep-25 11:19N 40°50' E 029°17'0 0.0
2013-Sep-25 10:31N 40°50' E 029°17'0 0.0
2013-Sep-25 09:31N 40°50' E 029°17'0 0.0
2013-Sep-23 14:30N 40°50' E 029°17'0 0.0
2013-Sep-23 13:30N 40°50' E 029°17'0 0.0
2013-Sep-23 12:30N 40°50' E 029°17'0 0.0
2013-Sep-23 11:24N 40°50' E 029°17'0 0.0
2013-Sep-23 10:30N 40°50' E 029°17'0 0.0
2013-Sep-23 09:30N 40°50' E 029°17'0 0.0
2013-Sep-23 08:30N 40°50' E 029°17'0 0.0
2013-Sep-23 07:30N 40°50' E 029°17'0 0.0
2013-Sep-23 06:18N 40°50' E 029°17'0 0.0
2013-Sep-21 09:29N 40°50' E 029°17'0 0.0
2013-Sep-21 08:29N 40°50' E 029°17'0 0.0
2013-Sep-21 07:29N 40°50' E 029°17'0 0.0
2013-Sep-21 06:29N 40°50' E 029°17'  
2013-Sep-16 02:32N 39°54' E 025°54'2311.2
2013-Sep-16 00:28N 39°34' E 025°40'1412.8
2013-Sep-15 23:21N 39°21' E 025°32'1013.0
2013-Sep-15 22:33N 39°12' E 025°27'1312.7
2013-Sep-15 21:33N 39°00' E 025°20'1312.7
2013-Sep-15 20:31N 38°49' E 025°11'1512.7
2013-Sep-15 19:21N 38°36' E 025°02'2412.2
2013-Sep-15 17:24N 38°15' E 024°48'2611.9
2013-Sep-15 15:13N 37°51' E 024°34'910.4
2013-Sep-15 14:20N 37°43' E 024°30'911.4
2013-Sep-15 13:33N 37°34' E 024°26'1212.4
2013-Sep-15 12:33N 37°24' E 024°17'1312.3
2013-Sep-15 11:32N 37°13' E 024°09'  
Track history (hours):
 
Tides and Currents Weather Stations Pressure Air Temp Water Temp Dewpoint Dewpoint Depression Visibility Wind Speed Wind Dir Waves Ship Positions

Star Siranger

Last reported at 2013-Sep-25 11:19 UTC. Time now 2014-Nov-26 10:07 UTC.
Position N 40°50' E 029°17'.
Warning: this ship's position is years out of date!

Length 149 m; draft 6 m.

Type: Cargo ship. MMSI: 563995000.

Date/timePositionNaut miles runAvg speedWind from/ knotsBaromVisibWave heightAir tempDewpointWater temp
2013-Sep-25 11:19N 40°50' E 029°17'0 0.0
2013-Sep-25 10:31N 40°50' E 029°17'0 0.0
2013-Sep-25 09:31N 40°50' E 029°17'0 0.0
2013-Sep-23 14:30N 40°50' E 029°17'0 0.0
2013-Sep-23 13:30N 40°50' E 029°17'0 0.0
2013-Sep-23 12:30N 40°50' E 029°17'0 0.0
2013-Sep-23 11:24N 40°50' E 029°17'0 0.0
2013-Sep-23 10:30N 40°50' E 029°17'0 0.0
2013-Sep-23 09:30N 40°50' E 029°17'0 0.0
2013-Sep-23 08:30N 40°50' E 029°17'0 0.0
2013-Sep-23 07:30N 40°50' E 029°17'0 0.0
2013-Sep-23 06:18N 40°50' E 029°17'0 0.0
2013-Sep-21 09:29N 40°50' E 029°17'0 0.0
2013-Sep-21 08:29N 40°50' E 029°17'0 0.0
2013-Sep-21 07:29N 40°50' E 029°17'0 0.0
2013-Sep-21 06:29N 40°50' E 029°17'  
2013-Sep-16 02:32N 39°54' E 025°54'2311.2
2013-Sep-16 00:28N 39°34' E 025°40'1412.8
2013-Sep-15 23:21N 39°21' E 025°32'1013.0
2013-Sep-15 22:33N 39°12' E 025°27'1312.7
2013-Sep-15 21:33N 39°00' E 025°20'1312.7
2013-Sep-15 20:31N 38°49' E 025°11'1512.7
2013-Sep-15 19:21N 38°36' E 025°02'2412.2
2013-Sep-15 17:24N 38°15' E 024°48'2611.9
2013-Sep-15 15:13N 37°51' E 024°34'910.4
2013-Sep-15 14:20N 37°43' E 024°30'911.4
2013-Sep-15 13:33N 37°34' E 024°26'1212.4
2013-Sep-15 12:33N 37°24' E 024°17'1312.3
2013-Sep-15 11:32N 37°13' E 024°09'  

Dump ship's entire track history